sensor_id;sensor_type;location;lat;lon;timestamp;P1;durP1;ratioP1;P2;durP2;ratioP2
4049;SDS011;2039;50.894;6.888;2024-03-25T00:02:09;19.07;;;3.33;;
4049;SDS011;2039;50.894;6.888;2024-03-25T00:04:35;24.50;;;3.63;;
4049;SDS011;2039;50.894;6.888;2024-03-25T00:07:04;27.58;;;3.67;;
4049;SDS011;2039;50.894;6.888;2024-03-25T00:09:30;22.88;;;5.07;;
4049;SDS011;2039;50.894;6.888;2024-03-25T00:11:55;21.90;;;4.33;;
4049;SDS011;2039;50.894;6.888;2024-03-25T00:14:21;16.63;;;2.80;;
4049;SDS011;2039;50.894;6.888;2024-03-25T00:16:47;23.08;;;3.47;;
4049;SDS011;2039;50.894;6.888;2024-03-25T00:19:13;16.67;;;3.20;;
4049;SDS011;2039;50.894;6.888;2024-03-25T00:21:39;19.58;;;3.05;;
4049;SDS011;2039;50.894;6.888;2024-03-25T00:24:05;23.87;;;3.13;;
4049;SDS011;2039;50.894;6.888;2024-03-25T00:26:31;17.90;;;3.17;;
4049;SDS011;2039;50.894;6.888;2024-03-25T00:28:56;20.27;;;3.20;;
4049;SDS011;2039;50.894;6.888;2024-03-25T00:31:22;19.70;;;3.10;;
4049;SDS011;2039;50.894;6.888;2024-03-25T00:33:47;17.20;;;2.43;;
4049;SDS011;2039;50.894;6.888;2024-03-25T00:36:13;21.27;;;2.47;;
4049;SDS011;2039;50.894;6.888;2024-03-25T00:38:39;17.10;;;2.67;;
4049;SDS011;2039;50.894;6.888;2024-03-25T00:41:04;19.87;;;3.47;;
4049;SDS011;2039;50.894;6.888;2024-03-25T00:43:30;17.47;;;3.10;;
4049;SDS011;2039;50.894;6.888;2024-03-25T00:45:56;19.30;;;3.57;;
4049;SDS011;2039;50.894;6.888;2024-03-25T00:48:22;18.60;;;4.30;;
4049;SDS011;2039;50.894;6.888;2024-03-25T00:50:48;19.90;;;3.35;;
4049;SDS011;2039;50.894;6.888;2024-03-25T00:53:14;22.77;;;4.80;;
4049;SDS011;2039;50.894;6.888;2024-03-25T00:55:39;18.90;;;3.53;;
4049;SDS011;2039;50.894;6.888;2024-03-25T00:58:06;19.60;;;3.35;;
4049;SDS011;2039;50.894;6.888;2024-03-25T01:00:31;20.00;;;3.43;;
4049;SDS011;2039;50.894;6.888;2024-03-25T01:02:57;20.10;;;3.43;;
4049;SDS011;2039;50.894;6.888;2024-03-25T01:05:23;19.60;;;3.30;;
4049;SDS011;2039;50.894;6.888;2024-03-25T01:07:48;18.00;;;3.10;;
4049;SDS011;2039;50.894;6.888;2024-03-25T01:10:14;20.10;;;3.90;;
4049;SDS011;2039;50.894;6.888;2024-03-25T01:12:41;21.50;;;3.25;;
4049;SDS011;2039;50.894;6.888;2024-03-25T01:15:07;28.10;;;3.40;;
4049;SDS011;2039;50.894;6.888;2024-03-25T01:17:35;24.42;;;3.22;;
4049;SDS011;2039;50.894;6.888;2024-03-25T01:20:01;18.55;;;2.95;;
4049;SDS011;2039;50.894;6.888;2024-03-25T01:22:27;20.00;;;2.50;;
4049;SDS011;2039;50.894;6.888;2024-03-25T01:24:52;19.70;;;3.07;;
4049;SDS011;2039;50.894;6.888;2024-03-25T01:27:18;16.10;;;2.53;;
4049;SDS011;2039;50.894;6.888;2024-03-25T01:29:44;20.38;;;3.17;;
4049;SDS011;2039;50.894;6.888;2024-03-25T01:32:10;22.03;;;3.90;;
4049;SDS011;2039;50.894;6.888;2024-03-25T01:34:35;19.60;;;2.70;;
4049;SDS011;2039;50.894;6.888;2024-03-25T01:37:01;21.50;;;3.30;;
4049;SDS011;2039;50.894;6.888;2024-03-25T01:39:26;23.13;;;3.30;;
4049;SDS011;2039;50.894;6.888;2024-03-25T01:41:52;27.07;;;2.73;;
4049;SDS011;2039;50.894;6.888;2024-03-25T01:44:18;25.13;;;3.13;;
4049;SDS011;2039;50.894;6.888;2024-03-25T01:46:43;17.63;;;2.80;;
4049;SDS011;2039;50.894;6.888;2024-03-25T01:49:09;24.80;;;3.53;;
4049;SDS011;2039;50.894;6.888;2024-03-25T01:51:36;20.98;;;2.92;;
4049;SDS011;2039;50.894;6.888;2024-03-25T01:54:02;14.73;;;2.75;;
4049;SDS011;2039;50.894;6.888;2024-03-25T01:56:33;20.73;;;2.90;;
4049;SDS011;2039;50.894;6.888;2024-03-25T01:59:00;16.30;;;3.78;;
4049;SDS011;2039;50.894;6.888;2024-03-25T02:01:26;21.73;;;3.67;;
4049;SDS011;2039;50.894;6.888;2024-03-25T02:03:54;18.50;;;4.30;;
4049;SDS011;2039;50.894;6.888;2024-03-25T02:06:20;16.58;;;3.35;;
4049;SDS011;2039;50.894;6.888;2024-03-25T02:08:47;16.50;;;2.47;;
4049;SDS011;2039;50.894;6.888;2024-03-25T02:11:14;30.27;;;3.38;;
4049;SDS011;2039;50.894;6.888;2024-03-25T02:13:41;17.85;;;2.50;;
4049;SDS011;2039;50.894;6.888;2024-03-25T02:16:07;19.20;;;2.60;;
4049;SDS011;2039;50.894;6.888;2024-03-25T02:18:32;23.17;;;4.07;;
4049;SDS011;2039;50.894;6.888;2024-03-25T02:20:59;20.45;;;3.53;;
4049;SDS011;2039;50.894;6.888;2024-03-25T02:23:25;22.58;;;2.70;;
4049;SDS011;2039;50.894;6.888;2024-03-25T02:25:52;22.85;;;3.85;;
4049;SDS011;2039;50.894;6.888;2024-03-25T02:28:18;18.75;;;3.05;;
4049;SDS011;2039;50.894;6.888;2024-03-25T02:30:44;23.50;;;4.22;;
4049;SDS011;2039;50.894;6.888;2024-03-25T02:33:10;18.80;;;2.70;;
4049;SDS011;2039;50.894;6.888;2024-03-25T02:35:36;22.53;;;2.73;;
4049;SDS011;2039;50.894;6.888;2024-03-25T02:38:04;21.17;;;3.30;;
4049;SDS011;2039;50.894;6.888;2024-03-25T02:40:30;16.83;;;3.17;;
4049;SDS011;2039;50.894;6.888;2024-03-25T02:42:56;18.80;;;3.17;;
4049;SDS011;2039;50.894;6.888;2024-03-25T02:45:22;20.80;;;2.80;;
4049;SDS011;2039;50.894;6.888;2024-03-25T02:47:49;18.90;;;3.07;;
4049;SDS011;2039;50.894;6.888;2024-03-25T02:50:15;24.80;;;2.53;;
4049;SDS011;2039;50.894;6.888;2024-03-25T02:52:41;16.73;;;2.50;;
4049;SDS011;2039;50.894;6.888;2024-03-25T02:55:06;16.00;;;2.53;;
4049;SDS011;2039;50.894;6.888;2024-03-25T02:57:32;22.40;;;3.17;;
4049;SDS011;2039;50.894;6.888;2024-03-25T02:59:58;17.20;;;2.90;;
4049;SDS011;2039;50.894;6.888;2024-03-25T03:02:23;17.87;;;4.07;;
4049;SDS011;2039;50.894;6.888;2024-03-25T03:04:49;25.10;;;3.73;;
4049;SDS011;2039;50.894;6.888;2024-03-25T03:07:15;23.00;;;3.47;;
4049;SDS011;2039;50.894;6.888;2024-03-25T03:09:40;27.87;;;3.73;;
4049;SDS011;2039;50.894;6.888;2024-03-25T03:12:06;24.30;;;3.27;;
4049;SDS011;2039;50.894;6.888;2024-03-25T03:14:32;21.37;;;3.10;;
4049;SDS011;2039;50.894;6.888;2024-03-25T03:16:58;23.60;;;2.90;;
4049;SDS011;2039;50.894;6.888;2024-03-25T03:19:27;22.40;;;3.27;;
4049;SDS011;2039;50.894;6.888;2024-03-25T03:21:53;17.30;;;2.58;;
4049;SDS011;2039;50.894;6.888;2024-03-25T03:24:19;20.85;;;3.63;;
4049;SDS011;2039;50.894;6.888;2024-03-25T03:26:45;17.70;;;3.13;;
4049;SDS011;2039;50.894;6.888;2024-03-25T03:29:11;20.88;;;3.20;;
4049;SDS011;2039;50.894;6.888;2024-03-25T03:31:37;20.40;;;2.53;;
4049;SDS011;2039;50.894;6.888;2024-03-25T03:34:02;20.03;;;3.53;;
4049;SDS011;2039;50.894;6.888;2024-03-25T03:36:28;22.17;;;4.27;;
4049;SDS011;2039;50.894;6.888;2024-03-25T03:38:54;21.83;;;3.13;;
4049;SDS011;2039;50.894;6.888;2024-03-25T03:41:20;23.90;;;3.53;;
4049;SDS011;2039;50.894;6.888;2024-03-25T03:43:45;34.10;;;3.83;;
4049;SDS011;2039;50.894;6.888;2024-03-25T03:46:11;16.53;;;2.70;;
4049;SDS011;2039;50.894;6.888;2024-03-25T03:48:37;17.70;;;2.87;;
4049;SDS011;2039;50.894;6.888;2024-03-25T03:51:06;24.88;;;2.95;;
4049;SDS011;2039;50.894;6.888;2024-03-25T03:53:33;16.98;;;2.72;;
4049;SDS011;2039;50.894;6.888;2024-03-25T03:56:00;27.40;;;3.20;;
4049;SDS011;2039;50.894;6.888;2024-03-25T03:58:27;27.42;;;3.97;;
4049;SDS011;2039;50.894;6.888;2024-03-25T04:00:54;27.92;;;2.88;;
4049;SDS011;2039;50.894;6.888;2024-03-25T04:03:20;18.70;;;3.10;;
4049;SDS011;2039;50.894;6.888;2024-03-25T04:05:45;22.02;;;3.75;;
4049;SDS011;2039;50.894;6.888;2024-03-25T04:08:11;23.90;;;2.90;;
4049;SDS011;2039;50.894;6.888;2024-03-25T04:10:37;19.30;;;3.45;;
4049;SDS011;2039;50.894;6.888;2024-03-25T04:13:08;22.75;;;2.90;;
4049;SDS011;2039;50.894;6.888;2024-03-25T04:15:34;20.17;;;2.38;;
4049;SDS011;2039;50.894;6.888;2024-03-25T04:18:00;18.38;;;2.47;;
4049;SDS011;2039;50.894;6.888;2024-03-25T04:20:29;19.17;;;3.07;;
4049;SDS011;2039;50.894;6.888;2024-03-25T04:23:00;27.20;;;3.40;;
4049;SDS011;2039;50.894;6.888;2024-03-25T04:25:26;17.43;;;2.90;;
4049;SDS011;2039;50.894;6.888;2024-03-25T04:27:51;22.20;;;2.83;;
4049;SDS011;2039;50.894;6.888;2024-03-25T04:30:17;21.00;;;3.07;;
4049;SDS011;2039;50.894;6.888;2024-03-25T04:32:43;24.83;;;4.30;;
4049;SDS011;2039;50.894;6.888;2024-03-25T04:35:08;18.13;;;3.53;;
4049;SDS011;2039;50.894;6.888;2024-03-25T04:37:34;19.80;;;3.10;;
4049;SDS011;2039;50.894;6.888;2024-03-25T04:40:00;19.60;;;3.70;;
4049;SDS011;2039;50.894;6.888;2024-03-25T04:42:27;19.02;;;3.40;;
4049;SDS011;2039;50.894;6.888;2024-03-25T04:44:53;19.07;;;3.60;;
4049;SDS011;2039;50.894;6.888;2024-03-25T04:47:21;22.65;;;3.63;;
4049;SDS011;2039;50.894;6.888;2024-03-25T04:49:47;17.10;;;3.00;;
4049;SDS011;2039;50.894;6.888;2024-03-25T04:52:12;15.47;;;2.70;;
4049;SDS011;2039;50.894;6.888;2024-03-25T04:54:41;15.65;;;2.70;;
4049;SDS011;2039;50.894;6.888;2024-03-25T04:57:08;16.20;;;3.45;;
4049;SDS011;2039;50.894;6.888;2024-03-25T04:59:33;19.93;;;3.53;;
4049;SDS011;2039;50.894;6.888;2024-03-25T05:01:59;22.47;;;3.43;;
4049;SDS011;2039;50.894;6.888;2024-03-25T05:04:25;18.70;;;3.23;;
4049;SDS011;2039;50.894;6.888;2024-03-25T05:06:50;20.33;;;3.77;;
4049;SDS011;2039;50.894;6.888;2024-03-25T05:09:16;23.60;;;4.07;;
4049;SDS011;2039;50.894;6.888;2024-03-25T05:11:42;25.07;;;3.10;;
4049;SDS011;2039;50.894;6.888;2024-03-25T05:14:08;20.10;;;3.20;;
4049;SDS011;2039;50.894;6.888;2024-03-25T05:16:34;19.17;;;3.50;;
4049;SDS011;2039;50.894;6.888;2024-03-25T05:19:00;19.50;;;3.50;;
4049;SDS011;2039;50.894;6.888;2024-03-25T05:21:25;17.90;;;3.73;;
4049;SDS011;2039;50.894;6.888;2024-03-25T05:23:51;16.57;;;2.87;;
4049;SDS011;2039;50.894;6.888;2024-03-25T05:26:16;21.13;;;3.77;;
4049;SDS011;2039;50.894;6.888;2024-03-25T05:28:42;16.13;;;2.50;;
4049;SDS011;2039;50.894;6.888;2024-03-25T05:31:08;18.97;;;4.17;;
4049;SDS011;2039;50.894;6.888;2024-03-25T05:33:34;16.58;;;3.08;;
4049;SDS011;2039;50.894;6.888;2024-03-25T05:36:03;20.55;;;4.00;;
4049;SDS011;2039;50.894;6.888;2024-03-25T05:38:28;21.37;;;3.30;;
4049;SDS011;2039;50.894;6.888;2024-03-25T05:40:54;18.80;;;3.53;;
4049;SDS011;2039;50.894;6.888;2024-03-25T05:43:20;20.98;;;4.15;;
4049;SDS011;2039;50.894;6.888;2024-03-25T05:45:52;16.55;;;3.30;;
4049;SDS011;2039;50.894;6.888;2024-03-25T05:48:18;18.08;;;3.28;;
4049;SDS011;2039;50.894;6.888;2024-03-25T05:50:59;19.55;;;3.38;;
4049;SDS011;2039;50.894;6.888;2024-03-25T05:53:30;19.98;;;3.58;;
4049;SDS011;2039;50.894;6.888;2024-03-25T05:55:56;19.83;;;3.55;;
4049;SDS011;2039;50.894;6.888;2024-03-25T05:58:24;22.75;;;3.65;;
4049;SDS011;2039;50.894;6.888;2024-03-25T06:00:50;17.85;;;3.38;;
4049;SDS011;2039;50.894;6.888;2024-03-25T06:03:18;19.10;;;3.30;;
4049;SDS011;2039;50.894;6.888;2024-03-25T06:05:43;18.60;;;3.80;;
4049;SDS011;2039;50.894;6.888;2024-03-25T06:08:09;19.00;;;2.93;;
4049;SDS011;2039;50.894;6.888;2024-03-25T06:10:43;15.70;;;3.50;;
4049;SDS011;2039;50.894;6.888;2024-03-25T06:13:09;15.45;;;2.72;;
4049;SDS011;2039;50.894;6.888;2024-03-25T06:15:35;22.73;;;4.00;;
4049;SDS011;2039;50.894;6.888;2024-03-25T06:18:00;23.73;;;4.37;;
4049;SDS011;2039;50.894;6.888;2024-03-25T06:20:26;19.20;;;3.03;;
4049;SDS011;2039;50.894;6.888;2024-03-25T06:22:52;24.10;;;3.20;;
4049;SDS011;2039;50.894;6.888;2024-03-25T06:25:17;18.70;;;3.30;;
4049;SDS011;2039;50.894;6.888;2024-03-25T06:27:43;24.53;;;4.80;;
4049;SDS011;2039;50.894;6.888;2024-03-25T06:30:09;22.13;;;3.27;;
4049;SDS011;2039;50.894;6.888;2024-03-25T06:32:54;19.60;;;3.47;;
4049;SDS011;2039;50.894;6.888;2024-03-25T06:35:38;35.47;;;7.10;;
4049;SDS011;2039;50.894;6.888;2024-03-25T06:38:04;35.33;;;7.00;;
4049;SDS011;2039;50.894;6.888;2024-03-25T06:40:31;31.20;;;10.23;;
4049;SDS011;2039;50.894;6.888;2024-03-25T06:42:57;27.83;;;7.43;;
4049;SDS011;2039;50.894;6.888;2024-03-25T06:45:22;31.63;;;7.67;;
4049;SDS011;2039;50.894;6.888;2024-03-25T06:47:48;31.00;;;7.07;;
4049;SDS011;2039;50.894;6.888;2024-03-25T06:50:14;29.33;;;6.90;;
4049;SDS011;2039;50.894;6.888;2024-03-25T06:52:39;28.43;;;6.77;;
4049;SDS011;2039;50.894;6.888;2024-03-25T06:55:05;27.70;;;6.10;;
4049;SDS011;2039;50.894;6.888;2024-03-25T06:57:31;35.30;;;7.80;;
4049;SDS011;2039;50.894;6.888;2024-03-25T06:59:58;22.48;;;4.53;;
4049;SDS011;2039;50.894;6.888;2024-03-25T07:02:23;23.63;;;4.90;;
4049;SDS011;2039;50.894;6.888;2024-03-25T07:04:49;24.27;;;5.10;;
4049;SDS011;2039;50.894;6.888;2024-03-25T07:07:15;24.50;;;4.70;;
4049;SDS011;2039;50.894;6.888;2024-03-25T07:09:40;26.90;;;6.63;;
4049;SDS011;2039;50.894;6.888;2024-03-25T07:12:06;21.07;;;4.53;;
4049;SDS011;2039;50.894;6.888;2024-03-25T07:14:32;17.77;;;3.83;;
4049;SDS011;2039;50.894;6.888;2024-03-25T07:16:58;20.37;;;4.30;;
4049;SDS011;2039;50.894;6.888;2024-03-25T07:19:23;20.57;;;4.53;;
4049;SDS011;2039;50.894;6.888;2024-03-25T07:21:49;17.93;;;3.20;;
4049;SDS011;2039;50.894;6.888;2024-03-25T07:24:15;16.80;;;4.13;;
4049;SDS011;2039;50.894;6.888;2024-03-25T07:26:40;25.33;;;4.27;;
4049;SDS011;2039;50.894;6.888;2024-03-25T07:29:06;26.53;;;4.33;;
4049;SDS011;2039;50.894;6.888;2024-03-25T07:31:32;20.65;;;3.55;;
4049;SDS011;2039;50.894;6.888;2024-03-25T07:33:58;21.70;;;4.07;;
4049;SDS011;2039;50.894;6.888;2024-03-25T07:36:23;17.27;;;3.60;;
4049;SDS011;2039;50.894;6.888;2024-03-25T07:38:49;25.23;;;4.50;;
4049;SDS011;2039;50.894;6.888;2024-03-25T07:41:15;29.63;;;5.70;;
4049;SDS011;2039;50.894;6.888;2024-03-25T07:43:40;23.07;;;4.70;;
4049;SDS011;2039;50.894;6.888;2024-03-25T07:46:06;32.30;;;5.60;;
4049;SDS011;2039;50.894;6.888;2024-03-25T07:48:32;25.50;;;5.27;;
4049;SDS011;2039;50.894;6.888;2024-03-25T07:50:57;23.10;;;5.50;;
4049;SDS011;2039;50.894;6.888;2024-03-25T07:53:23;19.17;;;3.58;;
4049;SDS011;2039;50.894;6.888;2024-03-25T07:55:49;20.73;;;3.43;;
4049;SDS011;2039;50.894;6.888;2024-03-25T07:58:16;26.63;;;3.35;;
4049;SDS011;2039;50.894;6.888;2024-03-25T08:00:44;22.58;;;4.82;;
4049;SDS011;2039;50.894;6.888;2024-03-25T08:03:10;17.10;;;3.20;;
4049;SDS011;2039;50.894;6.888;2024-03-25T08:05:35;22.87;;;3.80;;
4049;SDS011;2039;50.894;6.888;2024-03-25T08:08:01;22.20;;;4.87;;
4049;SDS011;2039;50.894;6.888;2024-03-25T08:10:27;24.40;;;7.77;;
4049;SDS011;2039;50.894;6.888;2024-03-25T08:12:53;22.27;;;5.70;;
4049;SDS011;2039;50.894;6.888;2024-03-25T08:15:19;26.40;;;4.57;;
4049;SDS011;2039;50.894;6.888;2024-03-25T08:17:44;18.80;;;4.70;;
4049;SDS011;2039;50.894;6.888;2024-03-25T08:20:10;16.67;;;4.00;;
4049;SDS011;2039;50.894;6.888;2024-03-25T08:22:36;26.50;;;6.45;;
4049;SDS011;2039;50.894;6.888;2024-03-25T08:25:02;19.40;;;4.80;;
4049;SDS011;2039;50.894;6.888;2024-03-25T08:27:28;22.75;;;4.35;;
4049;SDS011;2039;50.894;6.888;2024-03-25T08:29:54;20.10;;;4.30;;
4049;SDS011;2039;50.894;6.888;2024-03-25T08:32:19;20.97;;;3.70;;
4049;SDS011;2039;50.894;6.888;2024-03-25T08:34:45;21.87;;;3.73;;
4049;SDS011;2039;50.894;6.888;2024-03-25T08:37:11;24.92;;;4.20;;
4049;SDS011;2039;50.894;6.888;2024-03-25T08:39:37;19.20;;;3.53;;
4049;SDS011;2039;50.894;6.888;2024-03-25T08:42:03;21.67;;;3.87;;
4049;SDS011;2039;50.894;6.888;2024-03-25T08:44:28;23.13;;;3.40;;
4049;SDS011;2039;50.894;6.888;2024-03-25T08:46:54;22.07;;;4.00;;
4049;SDS011;2039;50.894;6.888;2024-03-25T08:49:19;21.33;;;3.60;;
4049;SDS011;2039;50.894;6.888;2024-03-25T08:51:45;26.60;;;5.67;;
4049;SDS011;2039;50.894;6.888;2024-03-25T08:54:11;23.47;;;2.33;;
4049;SDS011;2039;50.894;6.888;2024-03-25T08:56:36;19.43;;;3.23;;
4049;SDS011;2039;50.894;6.888;2024-03-25T08:59:02;20.33;;;3.73;;
4049;SDS011;2039;50.894;6.888;2024-03-25T09:01:28;23.07;;;4.10;;
4049;SDS011;2039;50.894;6.888;2024-03-25T09:03:55;21.48;;;4.15;;
4049;SDS011;2039;50.894;6.888;2024-03-25T09:06:21;22.40;;;4.60;;
4049;SDS011;2039;50.894;6.888;2024-03-25T09:08:47;20.03;;;2.80;;
4049;SDS011;2039;50.894;6.888;2024-03-25T09:11:31;18.38;;;4.38;;
4049;SDS011;2039;50.894;6.888;2024-03-25T09:13:57;21.92;;;5.28;;
4049;SDS011;2039;50.894;6.888;2024-03-25T09:16:22;26.70;;;4.70;;
4049;SDS011;2039;50.894;6.888;2024-03-25T09:18:48;17.90;;;3.20;;
4049;SDS011;2039;50.894;6.888;2024-03-25T09:21:14;22.17;;;3.37;;
4049;SDS011;2039;50.894;6.888;2024-03-25T09:23:39;20.03;;;3.37;;
4049;SDS011;2039;50.894;6.888;2024-03-25T09:26:05;16.27;;;3.60;;
4049;SDS011;2039;50.894;6.888;2024-03-25T09:28:31;16.33;;;2.40;;
4049;SDS011;2039;50.894;6.888;2024-03-25T09:30:56;25.10;;;4.80;;
4049;SDS011;2039;50.894;6.888;2024-03-25T09:33:22;25.27;;;4.60;;
4049;SDS011;2039;50.894;6.888;2024-03-25T09:35:48;20.00;;;3.42;;
4049;SDS011;2039;50.894;6.888;2024-03-25T09:38:16;15.73;;;2.95;;
4049;SDS011;2039;50.894;6.888;2024-03-25T09:40:42;19.50;;;3.50;;
4049;SDS011;2039;50.894;6.888;2024-03-25T09:43:21;20.63;;;3.70;;
4049;SDS011;2039;50.894;6.888;2024-03-25T09:45:50;22.20;;;4.07;;
4049;SDS011;2039;50.894;6.888;2024-03-25T09:48:17;21.00;;;3.60;;
4049;SDS011;2039;50.894;6.888;2024-03-25T09:50:47;21.00;;;3.70;;
4049;SDS011;2039;50.894;6.888;2024-03-25T09:53:14;18.15;;;3.33;;
4049;SDS011;2039;50.894;6.888;2024-03-25T09:55:40;19.07;;;2.97;;
4049;SDS011;2039;50.894;6.888;2024-03-25T09:58:06;19.35;;;3.35;;
4049;SDS011;2039;50.894;6.888;2024-03-25T10:00:32;19.65;;;3.47;;
4049;SDS011;2039;50.894;6.888;2024-03-25T10:02:58;20.63;;;4.60;;
4049;SDS011;2039;50.894;6.888;2024-03-25T10:05:24;24.60;;;3.00;;
4049;SDS011;2039;50.894;6.888;2024-03-25T10:07:50;24.63;;;2.97;;
4049;SDS011;2039;50.894;6.888;2024-03-25T10:10:22;23.03;;;3.23;;
4049;SDS011;2039;50.894;6.888;2024-03-25T10:12:47;17.33;;;3.22;;
4049;SDS011;2039;50.894;6.888;2024-03-25T10:15:16;16.73;;;2.17;;
4049;SDS011;2039;50.894;6.888;2024-03-25T10:17:42;15.77;;;3.13;;
4049;SDS011;2039;50.894;6.888;2024-03-25T10:20:13;18.10;;;3.10;;
4049;SDS011;2039;50.894;6.888;2024-03-25T10:22:42;16.73;;;2.63;;
4049;SDS011;2039;50.894;6.888;2024-03-25T10:25:31;22.75;;;3.28;;
4049;SDS011;2039;50.894;6.888;2024-03-25T10:27:57;17.65;;;2.60;;
4049;SDS011;2039;50.894;6.888;2024-03-25T10:30:26;17.83;;;2.90;;
4049;SDS011;2039;50.894;6.888;2024-03-25T10:33:05;16.45;;;1.95;;
4049;SDS011;2039;50.894;6.888;2024-03-25T10:35:32;17.45;;;2.78;;
4049;SDS011;2039;50.894;6.888;2024-03-25T10:38:08;20.13;;;2.50;;
4049;SDS011;2039;50.894;6.888;2024-03-25T10:40:38;20.98;;;2.28;;
4049;SDS011;2039;50.894;6.888;2024-03-25T10:43:11;20.25;;;1.88;;
4049;SDS011;2039;50.894;6.888;2024-03-25T10:45:40;20.23;;;2.05;;
4049;SDS011;2039;50.894;6.888;2024-03-25T10:50:44;14.75;;;2.30;;
4049;SDS011;2039;50.894;6.888;2024-03-25T10:53:11;18.23;;;2.60;;
4049;SDS011;2039;50.894;6.888;2024-03-25T10:55:39;22.05;;;2.45;;
4049;SDS011;2039;50.894;6.888;2024-03-25T10:58:05;16.08;;;2.33;;
4049;SDS011;2039;50.894;6.888;2024-03-25T11:00:33;17.48;;;2.20;;
4049;SDS011;2039;50.894;6.888;2024-03-25T11:03:00;14.27;;;2.13;;
4049;SDS011;2039;50.894;6.888;2024-03-25T11:05:26;15.75;;;2.20;;
4049;SDS011;2039;50.894;6.888;2024-03-25T11:07:52;16.67;;;2.40;;
4049;SDS011;2039;50.894;6.888;2024-03-25T11:10:18;20.67;;;1.83;;
4049;SDS011;2039;50.894;6.888;2024-03-25T11:12:43;15.07;;;1.93;;
4049;SDS011;2039;50.894;6.888;2024-03-25T11:15:10;22.55;;;2.22;;
4049;SDS011;2039;50.894;6.888;2024-03-25T11:17:36;17.00;;;2.03;;
4049;SDS011;2039;50.894;6.888;2024-03-25T11:20:13;18.67;;;2.53;;
4049;SDS011;2039;50.894;6.888;2024-03-25T11:22:50;14.82;;;1.95;;
4049;SDS011;2039;50.894;6.888;2024-03-25T11:25:18;20.27;;;2.30;;
4049;SDS011;2039;50.894;6.888;2024-03-25T11:27:46;15.18;;;1.83;;
4049;SDS011;2039;50.894;6.888;2024-03-25T11:30:12;15.30;;;3.38;;
4049;SDS011;2039;50.894;6.888;2024-03-25T11:32:52;14.90;;;1.83;;
4049;SDS011;2039;50.894;6.888;2024-03-25T11:35:19;13.30;;;1.80;;
4049;SDS011;2039;50.894;6.888;2024-03-25T11:37:44;13.27;;;1.93;;
4049;SDS011;2039;50.894;6.888;2024-03-25T11:40:11;19.30;;;1.60;;
4049;SDS011;2039;50.894;6.888;2024-03-25T11:42:39;14.30;;;1.50;;
4049;SDS011;2039;50.894;6.888;2024-03-25T11:45:06;15.77;;;2.08;;
4049;SDS011;2039;50.894;6.888;2024-03-25T11:47:33;14.77;;;2.10;;
4049;SDS011;2039;50.894;6.888;2024-03-25T11:49:58;13.40;;;1.80;;
4049;SDS011;2039;50.894;6.888;2024-03-25T11:52:29;18.10;;;1.90;;
4049;SDS011;2039;50.894;6.888;2024-03-25T11:54:55;21.50;;;1.97;;
4049;SDS011;2039;50.894;6.888;2024-03-25T11:57:22;14.83;;;1.50;;
4049;SDS011;2039;50.894;6.888;2024-03-25T11:59:47;13.73;;;1.87;;
4049;SDS011;2039;50.894;6.888;2024-03-25T12:02:17;12.87;;;1.43;;
4049;SDS011;2039;50.894;6.888;2024-03-25T12:04:43;17.90;;;2.43;;
4049;SDS011;2039;50.894;6.888;2024-03-25T12:07:12;19.10;;;1.87;;
4049;SDS011;2039;50.894;6.888;2024-03-25T12:09:38;14.70;;;2.23;;
4049;SDS011;2039;50.894;6.888;2024-03-25T12:12:23;16.30;;;2.40;;
4049;SDS011;2039;50.894;6.888;2024-03-25T12:14:49;12.80;;;1.43;;
4049;SDS011;2039;50.894;6.888;2024-03-25T12:17:17;18.70;;;1.67;;
4049;SDS011;2039;50.894;6.888;2024-03-25T12:19:43;13.30;;;1.57;;
4049;SDS011;2039;50.894;6.888;2024-03-25T12:22:09;12.53;;;1.37;;
4049;SDS011;2039;50.894;6.888;2024-03-25T12:24:35;13.47;;;2.17;;
4049;SDS011;2039;50.894;6.888;2024-03-25T12:27:01;13.73;;;1.83;;
4049;SDS011;2039;50.894;6.888;2024-03-25T12:29:30;14.40;;;1.63;;
4049;SDS011;2039;50.894;6.888;2024-03-25T12:31:59;15.13;;;1.87;;
4049;SDS011;2039;50.894;6.888;2024-03-25T12:34:26;12.47;;;1.20;;
4049;SDS011;2039;50.894;6.888;2024-03-25T12:37:00;14.40;;;1.50;;
4049;SDS011;2039;50.894;6.888;2024-03-25T12:39:32;16.80;;;1.90;;
4049;SDS011;2039;50.894;6.888;2024-03-25T12:41:57;14.80;;;1.30;;
4049;SDS011;2039;50.894;6.888;2024-03-25T12:44:23;13.87;;;1.80;;
4049;SDS011;2039;50.894;6.888;2024-03-25T12:46:50;13.40;;;1.80;;
4049;SDS011;2039;50.894;6.888;2024-03-25T12:49:22;11.90;;;1.37;;
4049;SDS011;2039;50.894;6.888;2024-03-25T12:51:48;14.00;;;1.20;;
4049;SDS011;2039;50.894;6.888;2024-03-25T12:54:14;15.90;;;2.33;;
4049;SDS011;2039;50.894;6.888;2024-03-25T12:56:40;19.70;;;1.80;;
4049;SDS011;2039;50.894;6.888;2024-03-25T12:59:07;13.50;;;1.50;;
4049;SDS011;2039;50.894;6.888;2024-03-25T13:01:33;12.97;;;1.53;;
4049;SDS011;2039;50.894;6.888;2024-03-25T13:03:58;13.13;;;1.47;;
4049;SDS011;2039;50.894;6.888;2024-03-25T13:06:24;12.50;;;1.50;;
4049;SDS011;2039;50.894;6.888;2024-03-25T13:08:50;14.90;;;2.13;;
4049;SDS011;2039;50.894;6.888;2024-03-25T13:11:16;13.70;;;1.97;;
4049;SDS011;2039;50.894;6.888;2024-03-25T13:13:41;13.20;;;1.33;;
4049;SDS011;2039;50.894;6.888;2024-03-25T13:16:07;18.23;;;1.70;;
4049;SDS011;2039;50.894;6.888;2024-03-25T13:18:33;14.87;;;1.80;;
4049;SDS011;2039;50.894;6.888;2024-03-25T13:20:59;12.60;;;1.23;;
4049;SDS011;2039;50.894;6.888;2024-03-25T13:23:25;12.10;;;1.10;;
4049;SDS011;2039;50.894;6.888;2024-03-25T13:25:50;12.53;;;1.73;;
4049;SDS011;2039;50.894;6.888;2024-03-25T13:28:16;13.40;;;1.40;;
4049;SDS011;2039;50.894;6.888;2024-03-25T13:30:43;14.30;;;1.70;;
4049;SDS011;2039;50.894;6.888;2024-03-25T13:33:09;12.47;;;1.17;;
4049;SDS011;2039;50.894;6.888;2024-03-25T13:35:35;15.77;;;2.43;;
4049;SDS011;2039;50.894;6.888;2024-03-25T13:38:03;12.50;;;1.70;;
4049;SDS011;2039;50.894;6.888;2024-03-25T13:40:32;12.73;;;1.60;;
4049;SDS011;2039;50.894;6.888;2024-03-25T13:42:57;12.13;;;1.33;;
4049;SDS011;2039;50.894;6.888;2024-03-25T13:45:23;12.97;;;1.50;;
4049;SDS011;2039;50.894;6.888;2024-03-25T13:47:49;13.67;;;2.10;;
4049;SDS011;2039;50.894;6.888;2024-03-25T13:50:15;17.57;;;2.20;;
4049;SDS011;2039;50.894;6.888;2024-03-25T13:52:40;14.80;;;1.70;;
4049;SDS011;2039;50.894;6.888;2024-03-25T13:55:06;15.60;;;1.63;;
4049;SDS011;2039;50.894;6.888;2024-03-25T13:57:32;12.63;;;1.53;;
4049;SDS011;2039;50.894;6.888;2024-03-25T13:59:57;12.53;;;1.57;;
4049;SDS011;2039;50.894;6.888;2024-03-25T14:02:23;17.10;;;2.20;;
4049;SDS011;2039;50.894;6.888;2024-03-25T14:04:49;15.20;;;1.83;;
4049;SDS011;2039;50.894;6.888;2024-03-25T14:07:14;14.13;;;1.67;;
4049;SDS011;2039;50.894;6.888;2024-03-25T14:09:40;12.50;;;1.33;;
4049;SDS011;2039;50.894;6.888;2024-03-25T14:12:06;22.70;;;1.80;;
4049;SDS011;2039;50.894;6.888;2024-03-25T14:14:31;12.90;;;1.87;;
4049;SDS011;2039;50.894;6.888;2024-03-25T14:16:57;12.60;;;1.43;;
4049;SDS011;2039;50.894;6.888;2024-03-25T14:19:23;12.80;;;1.80;;
4049;SDS011;2039;50.894;6.888;2024-03-25T14:21:49;13.73;;;1.93;;
4049;SDS011;2039;50.894;6.888;2024-03-25T14:24:15;21.13;;;1.70;;
4049;SDS011;2039;50.894;6.888;2024-03-25T14:26:41;11.77;;;1.27;;
4049;SDS011;2039;50.894;6.888;2024-03-25T14:29:06;17.40;;;2.33;;
4049;SDS011;2039;50.894;6.888;2024-03-25T14:31:32;17.77;;;2.27;;
4049;SDS011;2039;50.894;6.888;2024-03-25T14:33:58;15.17;;;2.07;;
4049;SDS011;2039;50.894;6.888;2024-03-25T14:36:24;14.57;;;1.47;;
4049;SDS011;2039;50.894;6.888;2024-03-25T14:38:49;13.93;;;2.00;;
4049;SDS011;2039;50.894;6.888;2024-03-25T14:41:19;12.80;;;1.67;;
4049;SDS011;2039;50.894;6.888;2024-03-25T14:43:46;13.07;;;1.43;;
4049;SDS011;2039;50.894;6.888;2024-03-25T14:46:13;16.93;;;3.00;;
4049;SDS011;2039;50.894;6.888;2024-03-25T14:48:39;12.83;;;1.80;;
4049;SDS011;2039;50.894;6.888;2024-03-25T14:51:05;12.40;;;1.90;;
4049;SDS011;2039;50.894;6.888;2024-03-25T14:53:30;12.83;;;1.57;;
4049;SDS011;2039;50.894;6.888;2024-03-25T14:55:56;13.47;;;1.60;;
4049;SDS011;2039;50.894;6.888;2024-03-25T14:58:21;16.20;;;2.20;;
4049;SDS011;2039;50.894;6.888;2024-03-25T15:00:47;13.93;;;2.47;;